sensor_id;sensor_type;location;lat;lon;timestamp;P1;durP1;ratioP1;P2;durP2;ratioP2
35919;SDS011;36160;53.370;-6.196;2023-02-15T00:01:04;18.50;;;8.02;;
35919;SDS011;36160;53.370;-6.196;2023-02-15T00:03:34;25.98;;;7.63;;
35919;SDS011;36160;53.370;-6.196;2023-02-15T00:06:00;26.73;;;8.20;;
35919;SDS011;36160;53.370;-6.196;2023-02-15T00:08:26;21.73;;;7.28;;
35919;SDS011;36160;53.370;-6.196;2023-02-15T00:10:52;24.25;;;8.23;;
35919;SDS011;36160;53.370;-6.196;2023-02-15T00:13:18;24.70;;;8.00;;
35919;SDS011;36160;53.370;-6.196;2023-02-15T00:15:44;27.92;;;8.10;;
35919;SDS011;36160;53.370;-6.196;2023-02-15T00:18:09;18.85;;;7.90;;
35919;SDS011;36160;53.370;-6.196;2023-02-15T00:20:35;27.63;;;8.90;;
35919;SDS011;36160;53.370;-6.196;2023-02-15T00:23:00;27.55;;;9.02;;
35919;SDS011;36160;53.370;-6.196;2023-02-15T00:25:26;21.73;;;8.52;;
35919;SDS011;36160;53.370;-6.196;2023-02-15T00:27:52;22.83;;;9.40;;
35919;SDS011;36160;53.370;-6.196;2023-02-15T00:30:17;34.28;;;9.73;;
35919;SDS011;36160;53.370;-6.196;2023-02-15T00:32:43;23.92;;;8.40;;
35919;SDS011;36160;53.370;-6.196;2023-02-15T00:35:09;31.92;;;11.07;;
35919;SDS011;36160;53.370;-6.196;2023-02-15T00:37:35;30.65;;;11.40;;
35919;SDS011;36160;53.370;-6.196;2023-02-15T00:40:01;30.48;;;9.63;;
35919;SDS011;36160;53.370;-6.196;2023-02-15T00:42:27;33.00;;;10.73;;
35919;SDS011;36160;53.370;-6.196;2023-02-15T00:44:52;29.42;;;11.38;;
35919;SDS011;36160;53.370;-6.196;2023-02-15T00:47:18;20.60;;;9.48;;
35919;SDS011;36160;53.370;-6.196;2023-02-15T00:49:44;23.42;;;10.35;;
35919;SDS011;36160;53.370;-6.196;2023-02-15T00:52:09;29.00;;;9.35;;
35919;SDS011;36160;53.370;-6.196;2023-02-15T00:54:35;26.45;;;10.05;;
35919;SDS011;36160;53.370;-6.196;2023-02-15T00:57:01;28.13;;;10.10;;
35919;SDS011;36160;53.370;-6.196;2023-02-15T00:59:27;25.38;;;10.10;;
35919;SDS011;36160;53.370;-6.196;2023-02-15T01:01:52;25.77;;;10.32;;
35919;SDS011;36160;53.370;-6.196;2023-02-15T01:04:18;28.35;;;11.00;;
35919;SDS011;36160;53.370;-6.196;2023-02-15T01:06:43;21.85;;;10.63;;
35919;SDS011;36160;53.370;-6.196;2023-02-15T01:09:09;32.17;;;12.32;;
35919;SDS011;36160;53.370;-6.196;2023-02-15T01:11:35;26.42;;;10.65;;
35919;SDS011;36160;53.370;-6.196;2023-02-15T01:14:00;30.10;;;11.10;;
35919;SDS011;36160;53.370;-6.196;2023-02-15T01:16:28;32.90;;;10.77;;
35919;SDS011;36160;53.370;-6.196;2023-02-15T01:18:54;23.55;;;9.77;;
35919;SDS011;36160;53.370;-6.196;2023-02-15T01:21:21;29.73;;;9.73;;
35919;SDS011;36160;53.370;-6.196;2023-02-15T01:23:48;29.65;;;11.38;;
35919;SDS011;36160;53.370;-6.196;2023-02-15T01:26:14;32.15;;;12.00;;
35919;SDS011;36160;53.370;-6.196;2023-02-15T01:28:41;32.83;;;10.75;;
35919;SDS011;36160;53.370;-6.196;2023-02-15T01:31:11;31.02;;;11.27;;
35919;SDS011;36160;53.370;-6.196;2023-02-15T01:33:40;20.75;;;11.30;;
35919;SDS011;36160;53.370;-6.196;2023-02-15T01:36:06;31.58;;;11.57;;
35919;SDS011;36160;53.370;-6.196;2023-02-15T01:38:32;26.48;;;10.00;;
35919;SDS011;36160;53.370;-6.196;2023-02-15T01:40:59;33.42;;;10.80;;
35919;SDS011;36160;53.370;-6.196;2023-02-15T01:43:44;28.35;;;12.63;;
35919;SDS011;36160;53.370;-6.196;2023-02-15T01:46:13;28.48;;;11.90;;
35919;SDS011;36160;53.370;-6.196;2023-02-15T01:48:43;32.78;;;11.93;;
35919;SDS011;36160;53.370;-6.196;2023-02-15T01:51:11;29.80;;;13.13;;
35919;SDS011;36160;53.370;-6.196;2023-02-15T01:56:37;32.25;;;12.95;;
35919;SDS011;36160;53.370;-6.196;2023-02-15T01:59:06;31.67;;;12.68;;
35919;SDS011;36160;53.370;-6.196;2023-02-15T02:01:37;35.60;;;13.70;;
35919;SDS011;36160;53.370;-6.196;2023-02-15T02:06:33;46.20;;;12.60;;
35919;SDS011;36160;53.370;-6.196;2023-02-15T02:09:00;35.70;;;13.52;;
35919;SDS011;36160;53.370;-6.196;2023-02-15T02:11:27;34.92;;;14.57;;
35919;SDS011;36160;53.370;-6.196;2023-02-15T02:13:53;31.73;;;14.40;;
35919;SDS011;36160;53.370;-6.196;2023-02-15T02:27:27;37.00;;;16.77;;
35919;SDS011;36160;53.370;-6.196;2023-02-15T02:30:18;43.03;;;15.95;;
35919;SDS011;36160;53.370;-6.196;2023-02-15T02:46:58;40.88;;;17.08;;
35919;SDS011;36160;53.370;-6.196;2023-02-15T02:49:38;39.88;;;16.75;;
35919;SDS011;36160;53.370;-6.196;2023-02-15T02:54:51;45.78;;;19.27;;
35919;SDS011;36160;53.370;-6.196;2023-02-15T02:57:17;42.63;;;18.30;;
35919;SDS011;36160;53.370;-6.196;2023-02-15T02:59:44;38.00;;;17.75;;
35919;SDS011;36160;53.370;-6.196;2023-02-15T03:02:22;47.97;;;17.05;;
35919;SDS011;36160;53.370;-6.196;2023-02-15T03:04:53;37.95;;;16.98;;
35919;SDS011;36160;53.370;-6.196;2023-02-15T03:07:28;46.33;;;17.27;;
35919;SDS011;36160;53.370;-6.196;2023-02-15T03:09:57;37.28;;;17.13;;
35919;SDS011;36160;53.370;-6.196;2023-02-15T03:12:29;35.75;;;17.80;;
35919;SDS011;36160;53.370;-6.196;2023-02-15T03:17:30;34.53;;;17.08;;
35919;SDS011;36160;53.370;-6.196;2023-02-15T03:20:01;41.10;;;17.20;;
35919;SDS011;36160;53.370;-6.196;2023-02-15T03:22:34;47.45;;;17.42;;
35919;SDS011;36160;53.370;-6.196;2023-02-15T03:25:11;47.42;;;19.02;;
35919;SDS011;36160;53.370;-6.196;2023-02-15T03:27:43;44.92;;;20.05;;
35919;SDS011;36160;53.370;-6.196;2023-02-15T03:30:11;43.22;;;18.48;;
35919;SDS011;36160;53.370;-6.196;2023-02-15T03:32:40;36.80;;;18.35;;
35919;SDS011;36160;53.370;-6.196;2023-02-15T03:35:08;39.10;;;17.48;;
35919;SDS011;36160;53.370;-6.196;2023-02-15T03:45:44;38.73;;;16.83;;
35919;SDS011;36160;53.370;-6.196;2023-02-15T03:48:30;36.92;;;16.45;;
35919;SDS011;36160;53.370;-6.196;2023-02-15T03:51:12;39.25;;;15.98;;
35919;SDS011;36160;53.370;-6.196;2023-02-15T03:59:02;37.38;;;15.38;;
35919;SDS011;36160;53.370;-6.196;2023-02-15T04:01:54;39.05;;;17.02;;
35919;SDS011;36160;53.370;-6.196;2023-02-15T04:04:38;36.42;;;14.32;;
35919;SDS011;36160;53.370;-6.196;2023-02-15T04:07:07;47.50;;;16.48;;
35919;SDS011;36160;53.370;-6.196;2023-02-15T04:09:34;46.95;;;16.40;;
35919;SDS011;36160;53.370;-6.196;2023-02-15T04:12:18;37.53;;;15.63;;
35919;SDS011;36160;53.370;-6.196;2023-02-15T04:14:43;39.55;;;16.23;;
35919;SDS011;36160;53.370;-6.196;2023-02-15T04:17:28;30.65;;;15.45;;
35919;SDS011;36160;53.370;-6.196;2023-02-15T04:19:53;43.45;;;16.70;;
35919;SDS011;36160;53.370;-6.196;2023-02-15T04:22:38;39.95;;;15.57;;
35919;SDS011;36160;53.370;-6.196;2023-02-15T04:25:21;32.03;;;14.43;;
35919;SDS011;36160;53.370;-6.196;2023-02-15T04:27:48;36.88;;;15.00;;
35919;SDS011;36160;53.370;-6.196;2023-02-15T04:30:16;37.03;;;15.35;;
35919;SDS011;36160;53.370;-6.196;2023-02-15T04:32:44;37.90;;;15.48;;
35919;SDS011;36160;53.370;-6.196;2023-02-15T04:35:10;38.65;;;14.00;;
35919;SDS011;36160;53.370;-6.196;2023-02-15T04:37:37;37.60;;;13.27;;
35919;SDS011;36160;53.370;-6.196;2023-02-15T04:40:04;31.88;;;13.88;;
35919;SDS011;36160;53.370;-6.196;2023-02-15T04:42:30;39.03;;;14.07;;
35919;SDS011;36160;53.370;-6.196;2023-02-15T04:44:56;30.80;;;13.68;;
35919;SDS011;36160;53.370;-6.196;2023-02-15T04:47:22;28.98;;;13.45;;
35919;SDS011;36160;53.370;-6.196;2023-02-15T04:49:47;33.92;;;13.20;;
35919;SDS011;36160;53.370;-6.196;2023-02-15T04:52:13;28.00;;;12.18;;
35919;SDS011;36160;53.370;-6.196;2023-02-15T04:54:39;30.45;;;12.45;;
35919;SDS011;36160;53.370;-6.196;2023-02-15T04:57:04;33.63;;;11.35;;
35919;SDS011;36160;53.370;-6.196;2023-02-15T04:59:30;34.58;;;11.20;;
35919;SDS011;36160;53.370;-6.196;2023-02-15T05:01:56;41.17;;;12.32;;
35919;SDS011;36160;53.370;-6.196;2023-02-15T05:04:22;37.28;;;15.40;;
35919;SDS011;36160;53.370;-6.196;2023-02-15T05:06:47;28.58;;;10.95;;
35919;SDS011;36160;53.370;-6.196;2023-02-15T05:09:13;30.40;;;12.45;;
35919;SDS011;36160;53.370;-6.196;2023-02-15T05:11:39;26.48;;;10.80;;
35919;SDS011;36160;53.370;-6.196;2023-02-15T05:14:05;34.08;;;11.82;;
35919;SDS011;36160;53.370;-6.196;2023-02-15T05:16:31;35.33;;;11.02;;
35919;SDS011;36160;53.370;-6.196;2023-02-15T05:18:57;36.38;;;13.35;;
35919;SDS011;36160;53.370;-6.196;2023-02-15T05:21:22;42.90;;;12.77;;
35919;SDS011;36160;53.370;-6.196;2023-02-15T05:23:48;36.80;;;13.65;;
35919;SDS011;36160;53.370;-6.196;2023-02-15T05:26:16;12.48;;;4.40;;
35919;SDS011;36160;53.370;-6.196;2023-02-15T05:29:02;7.65;;;2.55;;
35919;SDS011;36160;53.370;-6.196;2023-02-15T05:31:29;9.07;;;2.55;;
35919;SDS011;36160;53.370;-6.196;2023-02-15T05:33:56;2.92;;;1.58;;
35919;SDS011;36160;53.370;-6.196;2023-02-15T05:36:22;2.05;;;1.27;;
35919;SDS011;36160;53.370;-6.196;2023-02-15T05:38:47;1.63;;;0.90;;
35919;SDS011;36160;53.370;-6.196;2023-02-15T05:41:13;3.60;;;0.95;;
35919;SDS011;36160;53.370;-6.196;2023-02-15T05:43:39;1.80;;;0.90;;
35919;SDS011;36160;53.370;-6.196;2023-02-15T05:46:05;3.65;;;0.90;;
35919;SDS011;36160;53.370;-6.196;2023-02-15T05:48:31;2.00;;;0.85;;
35919;SDS011;36160;53.370;-6.196;2023-02-15T05:53:31;2.10;;;0.80;;
35919;SDS011;36160;53.370;-6.196;2023-02-15T05:55:58;2.05;;;0.82;;
35919;SDS011;36160;53.370;-6.196;2023-02-15T05:58:25;1.92;;;0.77;;
35919;SDS011;36160;53.370;-6.196;2023-02-15T06:00:52;2.53;;;1.30;;
35919;SDS011;36160;53.370;-6.196;2023-02-15T06:03:18;5.35;;;1.90;;
35919;SDS011;36160;53.370;-6.196;2023-02-15T06:05:43;1.02;;;0.73;;
35919;SDS011;36160;53.370;-6.196;2023-02-15T06:08:09;1.33;;;0.90;;
35919;SDS011;36160;53.370;-6.196;2023-02-15T06:10:35;1.10;;;0.80;;
35919;SDS011;36160;53.370;-6.196;2023-02-15T06:13:01;1.30;;;1.20;;
35919;SDS011;36160;53.370;-6.196;2023-02-15T06:15:26;3.35;;;0.73;;
35919;SDS011;36160;53.370;-6.196;2023-02-15T06:17:52;2.35;;;1.30;;
35919;SDS011;36160;53.370;-6.196;2023-02-15T06:20:18;0.80;;;0.60;;
35919;SDS011;36160;53.370;-6.196;2023-02-15T06:22:44;0.65;;;0.63;;
35919;SDS011;36160;53.370;-6.196;2023-02-15T06:25:09;2.97;;;0.80;;
35919;SDS011;36160;53.370;-6.196;2023-02-15T06:27:36;0.98;;;0.70;;
35919;SDS011;36160;53.370;-6.196;2023-02-15T06:30:03;1.10;;;0.90;;
35919;SDS011;36160;53.370;-6.196;2023-02-15T06:32:30;1.17;;;0.70;;
35919;SDS011;36160;53.370;-6.196;2023-02-15T06:34:56;3.13;;;1.13;;
35919;SDS011;36160;53.370;-6.196;2023-02-15T06:37:22;0.70;;;0.60;;
35919;SDS011;36160;53.370;-6.196;2023-02-15T06:39:48;1.45;;;0.93;;
35919;SDS011;36160;53.370;-6.196;2023-02-15T06:42:13;0.80;;;0.65;;
35919;SDS011;36160;53.370;-6.196;2023-02-15T06:44:39;3.50;;;0.68;;
35919;SDS011;36160;53.370;-6.196;2023-02-15T06:47:05;2.75;;;0.80;;
35919;SDS011;36160;53.370;-6.196;2023-02-15T06:49:30;2.78;;;0.70;;
35919;SDS011;36160;53.370;-6.196;2023-02-15T06:51:56;1.75;;;0.70;;
35919;SDS011;36160;53.370;-6.196;2023-02-15T06:54:22;1.13;;;1.00;;
35919;SDS011;36160;53.370;-6.196;2023-02-15T06:56:47;3.25;;;0.70;;
35919;SDS011;36160;53.370;-6.196;2023-02-15T06:59:13;4.30;;;0.90;;
35919;SDS011;36160;53.370;-6.196;2023-02-15T07:01:38;1.17;;;0.77;;
35919;SDS011;36160;53.370;-6.196;2023-02-15T07:04:04;2.80;;;0.88;;
35919;SDS011;36160;53.370;-6.196;2023-02-15T07:06:31;1.42;;;1.05;;
35919;SDS011;36160;53.370;-6.196;2023-02-15T07:08:58;3.88;;;1.42;;
35919;SDS011;36160;53.370;-6.196;2023-02-15T07:11:24;1.63;;;0.90;;
35919;SDS011;36160;53.370;-6.196;2023-02-15T07:14:08;2.53;;;0.93;;
35919;SDS011;36160;53.370;-6.196;2023-02-15T07:16:34;3.97;;;0.90;;
35919;SDS011;36160;53.370;-6.196;2023-02-15T07:18:59;1.45;;;0.90;;
35919;SDS011;36160;53.370;-6.196;2023-02-15T07:21:25;2.08;;;0.80;;
35919;SDS011;36160;53.370;-6.196;2023-02-15T07:23:51;1.33;;;0.73;;
35919;SDS011;36160;53.370;-6.196;2023-02-15T07:26:17;2.33;;;1.10;;
35919;SDS011;36160;53.370;-6.196;2023-02-15T07:28:43;3.67;;;1.70;;
35919;SDS011;36160;53.370;-6.196;2023-02-15T07:31:09;1.23;;;0.80;;
35919;SDS011;36160;53.370;-6.196;2023-02-15T07:33:34;3.15;;;1.10;;
35919;SDS011;36160;53.370;-6.196;2023-02-15T07:36:01;2.45;;;0.85;;
35919;SDS011;36160;53.370;-6.196;2023-02-15T07:38:32;3.42;;;0.80;;
35919;SDS011;36160;53.370;-6.196;2023-02-15T07:41:00;4.40;;;0.90;;
35919;SDS011;36160;53.370;-6.196;2023-02-15T07:43:27;2.75;;;0.70;;
35919;SDS011;36160;53.370;-6.196;2023-02-15T07:45:54;1.02;;;0.82;;
35919;SDS011;36160;53.370;-6.196;2023-02-15T07:48:24;2.88;;;0.80;;
35919;SDS011;36160;53.370;-6.196;2023-02-15T07:50:49;1.95;;;1.13;;
35919;SDS011;36160;53.370;-6.196;2023-02-15T07:53:15;3.25;;;1.00;;
35919;SDS011;36160;53.370;-6.196;2023-02-15T07:55:41;1.52;;;0.80;;
35919;SDS011;36160;53.370;-6.196;2023-02-15T07:58:06;4.25;;;1.55;;
35919;SDS011;36160;53.370;-6.196;2023-02-15T08:00:32;1.15;;;1.05;;
35919;SDS011;36160;53.370;-6.196;2023-02-15T08:03:18;3.35;;;1.27;;
35919;SDS011;36160;53.370;-6.196;2023-02-15T08:05:44;1.70;;;1.10;;
35919;SDS011;36160;53.370;-6.196;2023-02-15T08:08:10;2.53;;;1.02;;
35919;SDS011;36160;53.370;-6.196;2023-02-15T08:11:37;3.65;;;2.35;;
35919;SDS011;36160;53.370;-6.196;2023-02-15T08:14:00;2.45;;;1.27;;
35919;SDS011;36160;53.370;-6.196;2023-02-15T08:16:44;3.33;;;1.30;;
35919;SDS011;36160;53.370;-6.196;2023-02-15T08:21:47;2.42;;;1.45;;
35919;SDS011;36160;53.370;-6.196;2023-02-15T08:24:15;8.90;;;2.45;;
35919;SDS011;36160;53.370;-6.196;2023-02-15T08:26:42;3.53;;;0.90;;
35919;SDS011;36160;53.370;-6.196;2023-02-15T08:29:10;1.52;;;1.10;;
35919;SDS011;36160;53.370;-6.196;2023-02-15T08:31:36;5.40;;;1.42;;
35919;SDS011;36160;53.370;-6.196;2023-02-15T08:34:02;9.75;;;2.80;;
35919;SDS011;36160;53.370;-6.196;2023-02-15T08:36:29;17.48;;;3.25;;
35919;SDS011;36160;53.370;-6.196;2023-02-15T08:38:57;47.13;;;5.10;;
35919;SDS011;36160;53.370;-6.196;2023-02-15T08:41:24;70.85;;;8.45;;
35919;SDS011;36160;53.370;-6.196;2023-02-15T08:43:52;42.45;;;7.45;;
35919;SDS011;36160;53.370;-6.196;2023-02-15T08:46:19;21.92;;;3.25;;
35919;SDS011;36160;53.370;-6.196;2023-02-15T08:48:46;24.27;;;4.85;;
35919;SDS011;36160;53.370;-6.196;2023-02-15T08:51:14;24.17;;;4.40;;
35919;SDS011;36160;53.370;-6.196;2023-02-15T08:53:42;29.05;;;3.42;;
35919;SDS011;36160;53.370;-6.196;2023-02-15T08:56:10;15.18;;;2.88;;
35919;SDS011;36160;53.370;-6.196;2023-02-15T08:58:36;8.77;;;2.60;;
35919;SDS011;36160;53.370;-6.196;2023-02-15T09:01:12;9.85;;;2.15;;
35919;SDS011;36160;53.370;-6.196;2023-02-15T09:03:42;11.75;;;2.53;;
35919;SDS011;36160;53.370;-6.196;2023-02-15T09:06:09;7.25;;;2.40;;
35919;SDS011;36160;53.370;-6.196;2023-02-15T09:08:36;6.88;;;2.38;;
35919;SDS011;36160;53.370;-6.196;2023-02-15T09:11:09;6.72;;;2.30;;
35919;SDS011;36160;53.370;-6.196;2023-02-15T09:13:37;8.25;;;2.42;;
35919;SDS011;36160;53.370;-6.196;2023-02-15T09:16:04;6.80;;;3.13;;
35919;SDS011;36160;53.370;-6.196;2023-02-15T09:18:32;6.82;;;1.80;;
35919;SDS011;36160;53.370;-6.196;2023-02-15T09:23:38;3.10;;;1.70;;
35919;SDS011;36160;53.370;-6.196;2023-02-15T09:26:09;5.15;;;1.20;;
35919;SDS011;36160;53.370;-6.196;2023-02-15T09:28:38;1.60;;;1.02;;
35919;SDS011;36160;53.370;-6.196;2023-02-15T09:31:04;3.05;;;1.25;;
35919;SDS011;36160;53.370;-6.196;2023-02-15T09:33:35;2.53;;;1.08;;
35919;SDS011;36160;53.370;-6.196;2023-02-15T09:36:02;7.57;;;1.50;;
35919;SDS011;36160;53.370;-6.196;2023-02-15T09:38:29;3.30;;;1.73;;
35919;SDS011;36160;53.370;-6.196;2023-02-15T09:41:09;5.70;;;1.85;;
35919;SDS011;36160;53.370;-6.196;2023-02-15T09:43:46;1.55;;;1.30;;
35919;SDS011;36160;53.370;-6.196;2023-02-15T09:46:29;2.20;;;1.00;;
35919;SDS011;36160;53.370;-6.196;2023-02-15T09:54:42;3.83;;;1.20;;
35919;SDS011;36160;53.370;-6.196;2023-02-15T10:00:24;1.88;;;1.17;;
35919;SDS011;36160;53.370;-6.196;2023-02-15T10:19:44;3.20;;;1.00;;
35919;SDS011;36160;53.370;-6.196;2023-02-15T10:25:31;1.55;;;0.68;;
35919;SDS011;36160;53.370;-6.196;2023-02-15T10:28:06;2.40;;;0.82;;
35919;SDS011;36160;53.370;-6.196;2023-02-15T10:33:20;4.50;;;0.80;;
35919;SDS011;36160;53.370;-6.196;2023-02-15T10:38:46;4.35;;;1.42;;
35919;SDS011;36160;53.370;-6.196;2023-02-15T10:44:11;6.75;;;1.33;;
35919;SDS011;36160;53.370;-6.196;2023-02-15T10:54:55;4.43;;;1.00;;
35919;SDS011;36160;53.370;-6.196;2023-02-15T11:00:30;4.22;;;1.67;;
35919;SDS011;36160;53.370;-6.196;2023-02-15T11:06:00;9.13;;;1.85;;
35919;SDS011;36160;53.370;-6.196;2023-02-15T11:08:28;11.48;;;1.33;;
35919;SDS011;36160;53.370;-6.196;2023-02-15T11:11:01;7.13;;;2.13;;
35919;SDS011;36160;53.370;-6.196;2023-02-15T11:13:50;7.25;;;1.27;;
35919;SDS011;36160;53.370;-6.196;2023-02-15T11:16:21;2.03;;;1.10;;
35919;SDS011;36160;53.370;-6.196;2023-02-15T11:18:55;5.20;;;1.23;;
35919;SDS011;36160;53.370;-6.196;2023-02-15T11:29:22;4.72;;;1.25;;
35919;SDS011;36160;53.370;-6.196;2023-02-15T11:32:23;15.05;;;1.63;;
35919;SDS011;36160;53.370;-6.196;2023-02-15T11:34:55;5.18;;;1.70;;
35919;SDS011;36160;53.370;-6.196;2023-02-15T11:37:29;7.45;;;1.60;;
35919;SDS011;36160;53.370;-6.196;2023-02-15T11:46:00;4.53;;;1.45;;
35919;SDS011;36160;53.370;-6.196;2023-02-15T11:48:26;6.85;;;1.25;;
35919;SDS011;36160;53.370;-6.196;2023-02-15T11:50:56;3.55;;;1.27;;
35919;SDS011;36160;53.370;-6.196;2023-02-15T11:53:22;6.93;;;1.25;;
35919;SDS011;36160;53.370;-6.196;2023-02-15T11:55:52;6.70;;;1.73;;
35919;SDS011;36160;53.370;-6.196;2023-02-15T11:58:28;10.82;;;1.52;;
35919;SDS011;36160;53.370;-6.196;2023-02-15T12:01:30;7.45;;;2.00;;
35919;SDS011;36160;53.370;-6.196;2023-02-15T12:06:41;8.88;;;1.73;;
35919;SDS011;36160;53.370;-6.196;2023-02-15T12:09:33;7.82;;;1.92;;
35919;SDS011;36160;53.370;-6.196;2023-02-15T12:14:57;3.45;;;1.50;;
35919;SDS011;36160;53.370;-6.196;2023-02-15T12:17:25;6.13;;;1.27;;
35919;SDS011;36160;53.370;-6.196;2023-02-15T12:19:55;6.75;;;1.65;;
35919;SDS011;36160;53.370;-6.196;2023-02-15T12:22:32;20.83;;;3.58;;
35919;SDS011;36160;53.370;-6.196;2023-02-15T12:25:19;8.18;;;1.60;;
35919;SDS011;36160;53.370;-6.196;2023-02-15T12:27:48;9.68;;;1.40;;
35919;SDS011;36160;53.370;-6.196;2023-02-15T12:33:05;20.48;;;2.20;;
35919;SDS011;36160;53.370;-6.196;2023-02-15T12:35:54;7.35;;;1.98;;
35919;SDS011;36160;53.370;-6.196;2023-02-15T12:38:25;5.57;;;1.65;;
35919;SDS011;36160;53.370;-6.196;2023-02-15T12:41:36;10.07;;;1.98;;
35919;SDS011;36160;53.370;-6.196;2023-02-15T12:44:02;8.55;;;2.95;;
35919;SDS011;36160;53.370;-6.196;2023-02-15T12:46:37;5.18;;;1.45;;
35919;SDS011;36160;53.370;-6.196;2023-02-15T12:51:45;11.70;;;1.30;;
35919;SDS011;36160;53.370;-6.196;2023-02-15T12:56:43;5.05;;;1.67;;
35919;SDS011;36160;53.370;-6.196;2023-02-15T12:59:12;5.55;;;1.70;;
35919;SDS011;36160;53.370;-6.196;2023-02-15T13:01:39;6.05;;;1.85;;
35919;SDS011;36160;53.370;-6.196;2023-02-15T13:04:14;7.57;;;2.17;;
35919;SDS011;36160;53.370;-6.196;2023-02-15T13:06:48;9.30;;;1.60;;
35919;SDS011;36160;53.370;-6.196;2023-02-15T13:09:35;10.00;;;1.95;;
35919;SDS011;36160;53.370;-6.196;2023-02-15T13:14:49;8.32;;;1.40;;
35919;SDS011;36160;53.370;-6.196;2023-02-15T13:17:17;7.28;;;1.48;;
35919;SDS011;36160;53.370;-6.196;2023-02-15T13:19:52;21.83;;;3.17;;
35919;SDS011;36160;53.370;-6.196;2023-02-15T13:22:23;6.20;;;1.42;;
35919;SDS011;36160;53.370;-6.196;2023-02-15T13:24:57;4.43;;;1.60;;
35919;SDS011;36160;53.370;-6.196;2023-02-15T13:27:33;7.88;;;1.30;;
35919;SDS011;36160;53.370;-6.196;2023-02-15T13:30:03;6.90;;;1.30;;
35919;SDS011;36160;53.370;-6.196;2023-02-15T13:32:38;12.13;;;1.52;;
35919;SDS011;36160;53.370;-6.196;2023-02-15T13:35:10;3.72;;;1.05;;
35919;SDS011;36160;53.370;-6.196;2023-02-15T13:43:05;7.80;;;2.38;;
35919;SDS011;36160;53.370;-6.196;2023-02-15T13:45:52;7.88;;;1.63;;
35919;SDS011;36160;53.370;-6.196;2023-02-15T13:53:37;9.13;;;1.75;;
35919;SDS011;36160;53.370;-6.196;2023-02-15T13:56:27;7.78;;;1.42;;
35919;SDS011;36160;53.370;-6.196;2023-02-15T14:10:53;7.50;;;1.48;;
35919;SDS011;36160;53.370;-6.196;2023-02-15T14:13:42;6.72;;;1.63;;
35919;SDS011;36160;53.370;-6.196;2023-02-15T14:19:04;7.10;;;1.67;;
35919;SDS011;36160;53.370;-6.196;2023-02-15T14:21:36;6.07;;;1.70;;
35919;SDS011;36160;53.370;-6.196;2023-02-15T14:29:48;6.63;;;1.50;;
35919;SDS011;36160;53.370;-6.196;2023-02-15T14:32:16;11.00;;;2.83;;
35919;SDS011;36160;53.370;-6.196;2023-02-15T14:35:05;8.07;;;2.10;;
35919;SDS011;36160;53.370;-6.196;2023-02-15T14:37:42;6.25;;;1.88;;
35919;SDS011;36160;53.370;-6.196;2023-02-15T14:46:24;5.35;;;1.83;;
35919;SDS011;36160;53.370;-6.196;2023-02-15T14:48:51;7.38;;;1.80;;
35919;SDS011;36160;53.370;-6.196;2023-02-15T14:56:42;9.20;;;1.90;;
35919;SDS011;36160;53.370;-6.196;2023-02-15T14:59:13;10.88;;;1.77;;
35919;SDS011;36160;53.370;-6.196;2023-02-15T15:01:41;11.55;;;1.92;;
35919;SDS011;36160;53.370;-6.196;2023-02-15T15:04:22;12.38;;;2.72;;
35919;SDS011;36160;53.370;-6.196;2023-02-15T15:06:58;6.40;;;1.70;;
35919;SDS011;36160;53.370;-6.196;2023-02-15T15:09:29;8.73;;;2.13;;
35919;SDS011;36160;53.370;-6.196;2023-02-15T15:12:40;9.27;;;1.67;;
35919;SDS011;36160;53.370;-6.196;2023-02-15T15:14:47;5.25;;;1.70;;
35919;SDS011;36160;53.370;-6.196;2023-02-15T15:22:28;10.98;;;1.73;;
35919;SDS011;36160;53.370;-6.196;2023-02-15T15:32:38;8.65;;;1.77;;
35919;SDS011;36160;53.370;-6.196;2023-02-15T15:51:37;8.70;;;2.05;;
35919;SDS011;36160;53.370;-6.196;2023-02-15T15:54:05;10.57;;;2.40;;
35919;SDS011;36160;53.370;-6.196;2023-02-15T15:56:32;7.18;;;1.88;;
35919;SDS011;36160;53.370;-6.196;2023-02-15T15:59:01;11.57;;;2.40;;
35919;SDS011;36160;53.370;-6.196;2023-02-15T16:01:33;13.50;;;2.20;;
35919;SDS011;36160;53.370;-6.196;2023-02-15T16:04:03;9.10;;;2.10;;
35919;SDS011;36160;53.370;-6.196;2023-02-15T16:06:33;8.25;;;1.95;;
35919;SDS011;36160;53.370;-6.196;2023-02-15T16:09:11;6.13;;;1.55;;
35919;SDS011;36160;53.370;-6.196;2023-02-15T16:11:40;11.63;;;2.42;;
35919;SDS011;36160;53.370;-6.196;2023-02-15T16:14:14;3.83;;;1.70;;
35919;SDS011;36160;53.370;-6.196;2023-02-15T16:16:46;6.05;;;1.75;;
35919;SDS011;36160;53.370;-6.196;2023-02-15T16:19:48;7.70;;;1.45;;
35919;SDS011;36160;53.370;-6.196;2023-02-15T16:22:10;8.02;;;1.73;;
35919;SDS011;36160;53.370;-6.196;2023-02-15T16:27:47;11.40;;;2.95;;
35919;SDS011;36160;53.370;-6.196;2023-02-15T16:32:52;13.00;;;2.67;;
35919;SDS011;36160;53.370;-6.196;2023-02-15T16:35:19;9.88;;;2.97;;
35919;SDS011;36160;53.370;-6.196;2023-02-15T16:37:46;11.43;;;2.17;;
35919;SDS011;36160;53.370;-6.196;2023-02-15T16:42:56;7.32;;;2.00;;
35919;SDS011;36160;53.370;-6.196;2023-02-15T16:45:26;11.88;;;2.75;;
35919;SDS011;36160;53.370;-6.196;2023-02-15T16:47:55;11.18;;;2.67;;
35919;SDS011;36160;53.370;-6.196;2023-02-15T16:50:23;9.50;;;1.75;;
35919;SDS011;36160;53.370;-6.196;2023-02-15T16:52:57;9.95;;;2.10;;
35919;SDS011;36160;53.370;-6.196;2023-02-15T16:55:25;15.13;;;2.15;;
35919;SDS011;36160;53.370;-6.196;2023-02-15T16:58:04;6.55;;;1.90;;
35919;SDS011;36160;53.370;-6.196;2023-02-15T17:00:32;9.38;;;1.80;;
35919;SDS011;36160;53.370;-6.196;2023-02-15T17:08:17;4.47;;;1.80;;
35919;SDS011;36160;53.370;-6.196;2023-02-15T17:11:05;8.05;;;2.10;;
35919;SDS011;36160;53.370;-6.196;2023-02-15T17:13:35;9.50;;;2.10;;
35919;SDS011;36160;53.370;-6.196;2023-02-15T17:18:33;31.65;;;3.25;;
35919;SDS011;36160;53.370;-6.196;2023-02-15T17:21:10;14.55;;;1.90;;
35919;SDS011;36160;53.370;-6.196;2023-02-15T17:23:42;8.10;;;2.08;;
35919;SDS011;36160;53.370;-6.196;2023-02-15T17:26:20;20.48;;;2.30;;
35919;SDS011;36160;53.370;-6.196;2023-02-15T17:28:52;8.45;;;1.92;;
35919;SDS011;36160;53.370;-6.196;2023-02-15T17:31:21;9.93;;;2.35;;
35919;SDS011;36160;53.370;-6.196;2023-02-15T17:33:51;6.45;;;1.30;;
35919;SDS011;36160;53.370;-6.196;2023-02-15T17:36:20;5.65;;;1.85;;
35919;SDS011;36160;53.370;-6.196;2023-02-15T17:41:26;8.80;;;1.90;;
35919;SDS011;36160;53.370;-6.196;2023-02-15T17:43:54;15.10;;;2.55;;
35919;SDS011;36160;53.370;-6.196;2023-02-15T17:46:20;10.77;;;2.08;;
35919;SDS011;36160;53.370;-6.196;2023-02-15T17:48:48;7.63;;;1.90;;
35919;SDS011;36160;53.370;-6.196;2023-02-15T17:51:19;9.32;;;1.98;;
35919;SDS011;36160;53.370;-6.196;2023-02-15T17:53:46;8.00;;;2.60;;
35919;SDS011;36160;53.370;-6.196;2023-02-15T17:56:31;12.07;;;2.90;;
35919;SDS011;36160;53.370;-6.196;2023-02-15T17:58:57;12.32;;;2.60;;
35919;SDS011;36160;53.370;-6.196;2023-02-15T18:01:23;9.30;;;2.28;;
35919;SDS011;36160;53.370;-6.196;2023-02-15T18:04:08;18.02;;;2.30;;
35919;SDS011;36160;53.370;-6.196;2023-02-15T18:06:54;12.13;;;2.85;;
35919;SDS011;36160;53.370;-6.196;2023-02-15T18:09:38;13.57;;;2.10;;
35919;SDS011;36160;53.370;-6.196;2023-02-15T18:14:52;8.30;;;2.08;;
35919;SDS011;36160;53.370;-6.196;2023-02-15T18:17:21;12.65;;;2.22;;
35919;SDS011;36160;53.370;-6.196;2023-02-15T18:20:00;11.93;;;2.22;;
35919;SDS011;36160;53.370;-6.196;2023-02-15T18:22:29;7.63;;;2.47;;
35919;SDS011;36160;53.370;-6.196;2023-02-15T18:24:56;11.68;;;2.78;;
35919;SDS011;36160;53.370;-6.196;2023-02-15T18:27:22;17.23;;;2.30;;
35919;SDS011;36160;53.370;-6.196;2023-02-15T18:29:47;20.63;;;2.97;;
35919;SDS011;36160;53.370;-6.196;2023-02-15T18:32:17;7.32;;;1.98;;
35919;SDS011;36160;53.370;-6.196;2023-02-15T18:34:49;17.85;;;3.08;;
35919;SDS011;36160;53.370;-6.196;2023-02-15T18:37:17;9.45;;;2.92;;